createdAt,value
2022-08-05T00:00:00.469Z,3.67
2022-08-05T00:02:28.631Z,4.15
2022-08-05T00:04:56.593Z,4.35
2022-08-05T00:07:59.732Z,3.10
2022-08-05T00:10:11.303Z,4.40
2022-08-05T00:12:48.505Z,6.00
2022-08-05T00:15:56.161Z,3.75
2022-08-05T00:18:21.505Z,6.18
2022-08-05T00:20:49.106Z,5.05
2022-08-05T00:23:16.256Z,8.38
2022-08-05T00:25:46.036Z,4.75
2022-08-05T00:28:13.936Z,5.07
2022-08-05T00:30:44.046Z,4.40
2022-08-05T00:34:42.007Z,4.32
2022-08-05T00:36:16.607Z,7.40
2022-08-05T00:38:46.057Z,5.40
2022-08-05T00:41:13.026Z,5.90
2022-08-05T00:43:49.655Z,4.18
2022-08-05T00:46:16.894Z,5.53
2022-08-05T00:48:51.003Z,5.22
2022-08-05T00:51:50.235Z,3.95
2022-08-05T00:54:07.103Z,4.50
2022-08-05T00:56:34.469Z,4.88
2022-08-05T00:59:02.121Z,4.25
2022-08-05T01:01:42.826Z,3.08
2022-08-05T01:04:15.822Z,7.88
2022-08-05T01:06:43.878Z,3.70
2022-08-05T01:09:17.263Z,3.90
2022-08-05T01:11:50.068Z,5.95
2022-08-05T01:14:31.054Z,4.68
2022-08-05T01:17:06.429Z,4.32
2022-08-05T01:19:56.854Z,5.28
2022-08-05T01:22:47.766Z,4.50
2022-08-05T01:25:39.797Z,3.50
2022-08-05T01:28:31.685Z,4.03
2022-08-05T01:31:07.999Z,4.32
2022-08-05T01:33:49.013Z,4.55
2022-08-05T01:36:21.070Z,3.80
2022-08-05T01:38:56.924Z,6.28
2022-08-05T01:41:33.670Z,5.22
2022-08-05T01:44:02.278Z,6.45
2022-08-05T01:46:41.485Z,5.82
2022-08-05T01:49:23.765Z,4.68
2022-08-05T01:51:58.423Z,4.50
2022-08-05T01:54:32.538Z,5.75
2022-08-05T01:58:10.129Z,3.83
2022-08-05T01:59:50.983Z,7.50
2022-08-05T02:02:26.239Z,5.47
2022-08-05T02:05:01.026Z,4.93
2022-08-05T02:07:32.207Z,4.15
2022-08-05T02:10:01.252Z,4.60
2022-08-05T02:12:37.376Z,6.32
2022-08-05T02:15:12.976Z,6.13
2022-08-05T02:18:28.246Z,5.00
2022-08-05T02:20:54.085Z,5.95
2022-08-05T02:23:33.585Z,8.13
2022-08-05T02:26:05.042Z,5.93
2022-08-05T02:28:41.499Z,4.72
2022-08-05T02:31:21.325Z,5.57
2022-08-05T02:33:58.205Z,5.88
2022-08-05T02:36:31.491Z,4.28
2022-08-05T02:39:02.043Z,5.13
2022-08-05T02:41:42.928Z,4.05
2022-08-05T02:44:19.992Z,4.45
2022-08-05T02:46:58.375Z,4.57
2022-08-05T02:49:36.529Z,4.47
2022-08-05T02:52:08.808Z,5.30
2022-08-05T02:54:37.851Z,4.38
2022-08-05T02:58:10.421Z,3.55
2022-08-05T02:59:59.356Z,3.58
2022-08-05T03:02:29.732Z,5.78
2022-08-05T03:04:58.274Z,7.45
2022-08-05T03:08:01.007Z,4.38
2022-08-05T03:10:21.983Z,4.07
2022-08-05T03:12:54.280Z,3.72
2022-08-05T03:15:23.414Z,7.25
2022-08-05T03:17:55.932Z,4.95
2022-08-05T03:20:25.185Z,4.03
2022-08-05T03:22:57.171Z,3.78
2022-08-05T03:25:34.054Z,6.38
2022-08-05T03:28:14.486Z,5.25
2022-08-05T03:30:47.849Z,3.55
2022-08-05T03:33:15.207Z,7.40
2022-08-05T03:35:44.722Z,4.30
2022-08-05T03:38:12.408Z,4.47
2022-08-05T03:40:47.539Z,5.68
2022-08-05T03:44:08.168Z,9.00
2022-08-05T03:46:05.027Z,6.65
2022-08-05T03:48:35.438Z,4.45
2022-08-05T03:52:37.527Z,5.53
2022-08-05T03:55:06.939Z,5.22
2022-08-05T03:57:16.255Z,5.43
2022-08-05T03:59:54.709Z,4.20
2022-08-05T04:02:37.698Z,6.95
2022-08-05T04:05:09.912Z,4.47
2022-08-05T04:07:57.454Z,4.20
2022-08-05T04:10:32.020Z,6.38
2022-08-05T04:13:04.727Z,14.00
2022-08-05T04:15:32.816Z,5.05
2022-08-05T04:18:06.842Z,8.23
2022-08-05T04:20:34.634Z,4.30
2022-08-05T04:23:01.852Z,5.28
2022-08-05T04:25:56.984Z,4.50
2022-08-05T04:28:17.286Z,8.20
2022-08-05T04:30:45.132Z,6.97
2022-08-05T04:33:12.713Z,8.07
2022-08-05T04:36:15.865Z,10.27
2022-08-05T04:38:39.547Z,9.10
2022-08-05T04:41:09.562Z,5.18
2022-08-05T04:43:40.607Z,5.38
2022-08-05T04:46:28.022Z,5.95
2022-08-05T04:48:58.027Z,5.40
2022-08-05T04:51:25.903Z,7.60
2022-08-05T04:53:57.807Z,5.72
2022-08-05T04:56:34.511Z,6.40
2022-08-05T04:59:22.151Z,5.63
2022-08-05T05:02:07.177Z,6.15
2022-08-05T05:04:47.915Z,5.82
2022-08-05T05:07:18.293Z,5.78
2022-08-05T05:09:52.276Z,5.45
2022-08-05T05:12:20.935Z,5.93
2022-08-05T05:14:50.772Z,5.80
2022-08-05T05:17:23.293Z,5.63
2022-08-05T05:19:54.000Z,5.38
2022-08-05T05:22:24.668Z,6.60
2022-08-05T05:24:59.941Z,8.63
2022-08-05T05:27:45.847Z,5.47
2022-08-05T05:30:30.659Z,4.85
2022-08-05T05:33:08.934Z,7.03
2022-08-05T05:35:47.477Z,9.55
2022-08-05T05:38:22.628Z,6.88
2022-08-05T05:40:55.951Z,6.82
2022-08-05T05:43:54.841Z,4.97
2022-08-05T05:46:17.432Z,6.35
2022-08-05T05:48:48.118Z,8.70
2022-08-05T05:51:22.885Z,5.85
2022-08-05T05:53:58.058Z,5.10
2022-08-05T05:56:32.471Z,10.35
2022-08-05T05:59:06.181Z,8.30
2022-08-05T06:01:39.996Z,6.88
2022-08-05T06:04:11.509Z,7.32
2022-08-05T06:06:47.744Z,6.47
2022-08-05T06:09:24.826Z,6.75
2022-08-05T06:11:59.184Z,9.82
2022-08-05T06:14:28.105Z,9.27
2022-08-05T06:16:56.820Z,4.80
2022-08-05T06:19:33.037Z,5.65
2022-08-05T06:22:01.435Z,4.68
2022-08-05T06:24:28.392Z,4.32
2022-08-05T06:26:55.932Z,4.70
2022-08-05T06:29:42.789Z,5.68
2022-08-05T06:32:25.055Z,6.18
2022-08-05T06:34:56.360Z,4.78
2022-08-05T06:37:55.587Z,5.63
2022-08-05T06:40:18.278Z,5.65
2022-08-05T06:42:52.036Z,10.85
2022-08-05T06:46:04.236Z,4.45
2022-08-05T06:48:36.928Z,5.00
2022-08-05T06:50:55.528Z,5.70
2022-08-05T06:53:28.278Z,10.68
2022-08-05T06:56:00.736Z,7.20
2022-08-05T06:58:35.495Z,5.13
2022-08-05T07:01:06.100Z,10.30
2022-08-05T07:03:33.811Z,5.78
2022-08-05T07:06:06.021Z,6.13
2022-08-05T07:08:43.206Z,3.65
2022-08-05T07:11:15.961Z,4.60
2022-08-05T07:14:02.517Z,6.30
2022-08-05T07:17:59.793Z,5.22
2022-08-05T07:22:28.185Z,4.20
2022-08-05T07:25:23.945Z,5.38
2022-08-05T07:27:58.853Z,7.43
2022-08-05T07:30:38.280Z,5.80
2022-08-05T07:33:16.145Z,3.90
2022-08-05T07:36:02.308Z,9.35
2022-08-05T07:38:42.785Z,5.13
2022-08-05T07:42:07.980Z,5.80
2022-08-05T07:44:14.344Z,6.60
2022-08-05T07:46:48.575Z,7.93
2022-08-05T07:49:18.633Z,3.63
2022-08-05T07:51:53.670Z,5.05
2022-08-05T07:57:41.800Z,7.18
2022-08-05T07:59:49.639Z,4.32
2022-08-05T08:02:18.000Z,4.28
2022-08-05T08:04:46.945Z,3.15
2022-08-05T08:07:15.042Z,4.72
2022-08-05T08:09:43.788Z,3.90
2022-08-05T08:12:35.673Z,4.35
2022-08-05T08:15:02.110Z,6.05
2022-08-05T08:17:30.352Z,6.50
2022-08-05T08:20:43.531Z,4.60
2022-08-05T08:22:50.314Z,4.22
2022-08-05T08:25:26.771Z,6.57
2022-08-05T08:28:05.364Z,8.93
2022-08-05T08:30:47.938Z,4.82
2022-08-05T08:33:20.260Z,4.80
2022-08-05T08:35:53.831Z,3.80
2022-08-05T08:38:35.857Z,6.22
2022-08-05T08:41:07.412Z,2.90
2022-08-05T08:45:17.094Z,4.28
2022-08-05T08:46:27.554Z,5.30
2022-08-05T08:49:08.034Z,3.25
2022-08-05T08:52:02.956Z,4.03
2022-08-05T08:54:33.219Z,4.40
2022-08-05T08:57:11.428Z,5.18
2022-08-05T08:59:39.004Z,2.88
2022-08-05T09:02:09.096Z,6.32
2022-08-05T09:04:58.480Z,5.13
2022-08-05T09:07:28.512Z,3.75
2022-08-05T09:09:56.637Z,7.10
2022-08-05T09:12:30.260Z,5.00
2022-08-05T09:15:05.719Z,4.97
2022-08-05T09:17:42.283Z,4.45
2022-08-05T09:20:36.493Z,3.40
2022-08-05T09:23:09.278Z,3.15
2022-08-05T09:26:01.458Z,3.65
2022-08-05T09:28:32.282Z,4.55
2022-08-05T09:31:22.199Z,4.78
2022-08-05T09:34:05.214Z,3.38
2022-08-05T09:36:59.352Z,5.53
2022-08-05T09:39:44.980Z,4.43
2022-08-05T09:42:27.884Z,3.95
2022-08-05T10:16:37.897Z,5.55
2022-08-05T10:19:23.455Z,4.57
2022-08-05T10:21:59.141Z,3.05
2022-08-05T10:24:27.154Z,3.75
2022-08-05T10:27:00.251Z,4.75
2022-08-05T10:30:06.913Z,3.55
2022-08-05T10:32:51.664Z,3.80
2022-08-05T10:35:04.802Z,4.55
2022-08-05T10:37:44.444Z,7.57
2022-08-05T10:40:28.551Z,3.15
2022-08-05T10:43:02.076Z,5.53
2022-08-05T10:48:39.516Z,4.88
2022-08-05T10:51:28.343Z,4.82
2022-08-05T10:54:02.052Z,5.07
2022-08-05T10:56:53.148Z,4.25
2022-08-05T11:00:03.194Z,8.73
2022-08-05T11:02:38.125Z,3.75
2022-08-05T11:05:10.532Z,6.50
2022-08-05T11:08:01.233Z,5.55
2022-08-05T11:10:31.262Z,6.95
2022-08-05T11:13:01.179Z,4.30
2022-08-05T11:16:00.540Z,4.50
2022-08-05T11:18:32.533Z,4.18
2022-08-05T11:21:00.158Z,4.15
2022-08-05T11:23:33.224Z,3.28
2022-08-05T11:26:09.071Z,5.05
2022-08-05T11:28:36.281Z,3.90
2022-08-05T11:31:06.318Z,3.75
2022-08-05T11:33:46.193Z,6.68
2022-08-05T11:36:34.669Z,3.25
2022-08-05T11:39:09.145Z,8.00
2022-08-05T11:42:01.477Z,4.43
2022-08-05T11:44:53.010Z,7.55
2022-08-05T11:47:48.684Z,7.10
2022-08-05T11:50:14.163Z,7.05
2022-08-05T11:52:43.867Z,5.45
2022-08-05T11:55:12.666Z,8.75
2022-08-05T11:58:09.327Z,5.95
2022-08-05T12:00:38.414Z,6.25
2022-08-05T12:03:28.989Z,3.95
2022-08-05T12:06:06.193Z,5.63
2022-08-05T12:08:34.391Z,3.95
2022-08-05T12:11:08.992Z,6.97
2022-08-05T12:13:49.690Z,5.75
2022-08-05T12:16:26.980Z,7.13
2022-08-05T12:18:55.222Z,4.40
2022-08-05T12:21:29.954Z,6.50
2022-08-05T12:24:07.568Z,8.73
2022-08-05T12:26:39.141Z,5.60
2022-08-05T12:29:16.019Z,5.32
2022-08-05T12:31:57.730Z,9.35
2022-08-05T12:34:31.444Z,7.13
2022-08-05T12:37:10.933Z,4.45
2022-08-05T12:40:03.718Z,8.10
2022-08-05T12:42:37.972Z,6.25
2022-08-05T12:45:09.502Z,6.55
2022-08-05T12:47:38.274Z,4.82
2022-08-05T12:50:17.508Z,7.07
2022-08-05T12:52:59.623Z,5.97
2022-08-05T12:55:28.532Z,7.13
2022-08-05T12:58:49.789Z,4.07
2022-08-05T13:02:02.928Z,5.43
2022-08-05T13:03:42.137Z,4.72
2022-08-05T13:06:16.923Z,7.95
2022-08-05T13:08:51.821Z,7.90
2022-08-05T13:11:59.882Z,5.78
2022-08-05T13:14:14.739Z,5.15
2022-08-05T13:16:47.396Z,6.85
2022-08-05T13:19:16.060Z,6.28
2022-08-05T13:21:48.272Z,5.07
2022-08-05T13:24:36.331Z,8.77
2022-08-05T13:27:11.173Z,6.30
2022-08-05T13:30:32.957Z,10.65
2022-08-05T13:32:35.121Z,5.88
2022-08-05T13:35:07.985Z,8.93
2022-08-05T13:37:35.274Z,6.22
2022-08-05T13:40:15.788Z,4.82
2022-08-05T13:42:49.103Z,5.97
2022-08-05T13:45:22.656Z,4.53
2022-08-05T13:48:09.803Z,4.72
2022-08-05T13:50:48.137Z,8.18
2022-08-05T13:53:15.840Z,4.13
2022-08-05T13:55:50.227Z,12.80
2022-08-05T13:58:30.363Z,6.63
2022-08-05T14:00:58.639Z,4.75
2022-08-05T14:03:28.360Z,7.32
2022-08-05T14:06:25.231Z,7.55
2022-08-05T14:08:43.091Z,5.57
2022-08-05T14:11:20.483Z,5.70
2022-08-05T14:13:48.495Z,5.63
2022-08-05T14:16:19.307Z,9.18
2022-08-05T14:18:46.317Z,5.13
2022-08-05T14:22:07.821Z,5.57
2022-08-05T14:24:00.712Z,4.10
2022-08-05T14:26:36.828Z,7.93
2022-08-05T14:29:15.884Z,5.00
2022-08-05T14:32:03.210Z,4.57
2022-08-05T14:34:35.328Z,8.57
2022-08-05T14:37:04.818Z,5.50
2022-08-05T14:39:49.971Z,7.93
2022-08-05T14:42:20.878Z,8.27
2022-08-05T14:44:49.251Z,5.10
2022-08-05T14:47:16.369Z,4.03
2022-08-05T14:50:17.386Z,6.22
2022-08-05T14:52:53.032Z,6.50
2022-08-05T14:55:24.585Z,8.93
2022-08-05T14:57:56.009Z,7.38
2022-08-05T15:00:28.248Z,3.80
2022-08-05T15:02:58.082Z,4.25
2022-08-05T15:05:29.547Z,7.95
2022-08-05T15:08:06.023Z,12.90
2022-08-05T15:10:41.545Z,4.28
2022-08-05T15:13:10.084Z,4.15
2022-08-05T15:15:55.568Z,8.15
2022-08-05T15:18:23.485Z,5.57
2022-08-05T15:20:50.916Z,7.75
2022-08-05T15:23:18.407Z,6.95
2022-08-05T15:25:53.283Z,4.32
2022-08-05T15:28:27.328Z,6.40
2022-08-05T15:30:55.655Z,11.48
2022-08-05T15:33:56.940Z,4.82
2022-08-05T15:36:17.030Z,3.75
2022-08-05T15:40:58.490Z,4.10
2022-08-05T15:41:58.531Z,9.93
2022-08-05T15:44:27.827Z,4.88
2022-08-05T15:46:55.914Z,6.25
2022-08-05T15:49:41.865Z,5.85
2022-08-05T15:52:15.823Z,3.58
2022-08-05T15:54:56.727Z,7.35
2022-08-05T15:57:23.808Z,3.63
2022-08-05T15:59:55.210Z,8.05
2022-08-05T16:02:25.191Z,7.28
2022-08-05T16:04:55.470Z,7.38
2022-08-05T16:07:22.961Z,7.50
2022-08-05T16:09:50.467Z,15.25
2022-08-05T16:12:19.824Z,6.60
2022-08-05T16:14:47.124Z,10.10
2022-08-05T16:17:14.364Z,9.90
2022-08-05T16:20:04.654Z,4.35
2022-08-05T16:22:33.850Z,9.95
2022-08-05T16:25:08.178Z,5.25
2022-08-05T16:28:01.039Z,4.87
2022-08-05T16:30:26.163Z,6.53
2022-08-05T16:32:56.071Z,5.72
2022-08-05T16:35:28.151Z,6.68
2022-08-05T16:38:02.813Z,7.97
2022-08-05T16:40:47.681Z,4.90
2022-08-05T16:43:19.691Z,8.15
2022-08-05T16:46:04.094Z,6.45
2022-08-05T16:48:35.239Z,4.85
2022-08-05T16:51:08.677Z,18.30
2022-08-05T16:54:02.515Z,10.98
2022-08-05T16:56:26.401Z,12.30
2022-08-05T16:58:53.375Z,5.65
2022-08-05T17:01:20.547Z,6.97
2022-08-05T17:03:47.761Z,9.05
2022-08-05T17:06:16.587Z,6.93
2022-08-05T17:08:53.061Z,5.63
2022-08-05T17:11:23.437Z,6.20
2022-08-05T17:14:00.695Z,7.10
2022-08-05T17:16:36.389Z,10.55
2022-08-05T17:19:09.555Z,13.07
2022-08-05T17:21:39.709Z,11.50
2022-08-05T17:24:18.544Z,7.78
2022-08-05T17:26:57.429Z,14.48
2022-08-05T17:29:33.224Z,10.52
2022-08-05T17:32:01.292Z,7.07
2022-08-05T17:34:32.469Z,7.72
2022-08-05T17:37:02.121Z,16.23
2022-08-05T17:39:33.992Z,9.50
2022-08-05T17:42:17.860Z,10.93
2022-08-05T17:44:50.458Z,9.20
2022-08-05T17:47:22.462Z,13.90
2022-08-05T17:50:03.706Z,8.27
2022-08-05T17:52:53.344Z,16.52
2022-08-05T17:55:22.906Z,10.23
2022-08-05T17:58:02.205Z,13.50
2022-08-05T18:00:29.860Z,12.30
2022-08-05T18:02:57.308Z,9.15
2022-08-05T18:05:27.920Z,9.13
2022-08-05T18:07:56.755Z,9.90
2022-08-05T18:10:24.557Z,8.25
2022-08-05T18:12:52.690Z,12.85
2022-08-05T18:15:20.066Z,8.88
2022-08-05T18:18:01.458Z,9.02
2022-08-05T18:20:31.729Z,7.13
2022-08-05T18:23:09.172Z,6.25
2022-08-05T18:25:44.813Z,8.68
2022-08-05T18:28:16.585Z,6.15
2022-08-05T18:30:47.513Z,8.10
2022-08-05T18:33:23.112Z,9.88
2022-08-05T18:36:03.376Z,8.45
2022-08-05T18:38:36.330Z,8.23
2022-08-05T18:41:54.957Z,11.95
2022-08-05T18:43:53.171Z,10.25
2022-08-05T18:46:20.650Z,11.60
2022-08-05T18:48:52.676Z,10.85
2022-08-05T18:52:03.974Z,11.75
2022-08-05T18:54:31.231Z,8.75
2022-08-05T18:57:05.063Z,12.02
2022-08-05T18:59:44.142Z,9.30
2022-08-05T19:05:02.814Z,9.65
2022-08-05T19:07:46.546Z,8.77
2022-08-05T19:10:28.089Z,10.57
2022-08-05T19:12:56.918Z,8.75
2022-08-05T19:15:58.138Z,8.93
2022-08-05T19:18:21.910Z,9.35
2022-08-05T19:20:52.484Z,9.45
2022-08-05T19:24:04.286Z,8.90
2022-08-05T19:26:08.619Z,10.90
2022-08-05T19:28:43.631Z,12.30
2022-08-05T19:31:13.211Z,7.97
2022-08-05T19:33:48.642Z,8.27
2022-08-05T19:36:29.287Z,8.63
2022-08-05T19:39:00.984Z,10.45
2022-08-05T19:42:06.486Z,7.65
2022-08-05T19:44:18.912Z,11.07
2022-08-05T19:46:46.383Z,14.60
2022-08-05T19:49:17.181Z,9.68
2022-08-05T19:52:04.696Z,8.32
2022-08-05T19:54:34.067Z,9.95
2022-08-05T19:57:04.557Z,12.77
2022-08-05T19:59:55.268Z,9.55
2022-08-05T20:02:25.961Z,12.73
2022-08-05T20:04:53.995Z,14.48
2022-08-05T20:07:46.251Z,10.85
2022-08-05T20:12:46.256Z,11.25
2022-08-05T20:15:48.543Z,11.73
2022-08-05T20:18:10.491Z,8.70
2022-08-05T20:20:56.841Z,10.27
2022-08-05T20:23:39.987Z,10.13
2022-08-05T20:26:17.358Z,11.10
2022-08-05T20:28:50.675Z,13.73
2022-08-05T20:31:21.622Z,11.57
2022-08-05T20:33:55.906Z,8.13
2022-08-05T20:36:24.095Z,13.75
2022-08-05T20:38:53.686Z,11.15
2022-08-05T20:41:27.317Z,7.93
2022-08-05T20:44:15.426Z,7.95
2022-08-05T20:46:45.431Z,7.88
2022-08-05T20:49:12.813Z,10.98
2022-08-05T20:51:39.930Z,9.68
2022-08-05T20:54:06.889Z,14.60
2022-08-05T20:56:42.499Z,8.77
2022-08-05T20:59:19.313Z,10.82
2022-08-05T21:01:57.298Z,9.82
2022-08-05T21:04:27.065Z,13.00
2022-08-05T21:06:55.010Z,11.60
2022-08-05T21:09:22.947Z,12.23
2022-08-05T21:12:10.353Z,17.40
2022-08-05T21:14:38.706Z,14.10
2022-08-05T21:17:06.443Z,13.40
2022-08-05T21:19:46.411Z,17.77
2022-08-05T21:22:18.364Z,18.48
2022-08-05T21:24:48.772Z,16.88
2022-08-05T21:27:16.566Z,17.00
2022-08-05T21:29:48.495Z,15.73
2022-08-05T21:32:20.124Z,13.43
2022-08-05T21:35:09.045Z,16.75
2022-08-05T21:37:35.098Z,17.05
2022-08-05T21:40:13.705Z,14.45
2022-08-05T21:42:45.183Z,13.20
2022-08-05T21:45:24.767Z,16.65
2022-08-05T21:47:56.172Z,21.98
2022-08-05T21:50:27.847Z,12.23
2022-08-05T21:52:59.017Z,13.75
2022-08-05T21:56:01.799Z,14.80
2022-08-05T21:58:20.337Z,10.57
2022-08-05T22:00:51.986Z,12.65
2022-08-05T22:03:48.307Z,8.90
2022-08-05T22:06:06.654Z,10.15
2022-08-05T22:08:35.383Z,14.48
2022-08-05T22:11:02.405Z,8.25
2022-08-05T22:14:34.263Z,9.18
2022-08-05T22:16:41.442Z,14.20
2022-08-05T22:21:54.518Z,10.68
2022-08-05T22:24:52.504Z,8.32
2022-08-05T22:30:35.097Z,9.25
2022-08-05T22:33:15.559Z,8.38
2022-08-05T22:35:48.617Z,11.18
2022-08-05T22:38:19.657Z,11.13
2022-08-05T22:40:49.387Z,8.85
2022-08-05T22:43:36.273Z,9.48
2022-08-05T22:46:13.276Z,8.05
2022-08-05T22:48:48.044Z,8.43
2022-08-05T22:51:15.630Z,5.72
2022-08-05T22:53:51.827Z,6.65
2022-08-05T22:56:29.848Z,13.88
2022-08-05T22:59:04.174Z,6.32
2022-08-05T23:01:50.876Z,11.77
2022-08-05T23:04:33.370Z,8.80
2022-08-05T23:07:00.379Z,5.63
2022-08-05T23:09:58.230Z,11.95
2022-08-05T23:12:16.413Z,9.68
2022-08-05T23:14:43.907Z,10.65
2022-08-05T23:17:34.125Z,11.23
2022-08-05T23:20:16.703Z,13.98
2022-08-05T23:22:48.657Z,18.83
2022-08-05T23:25:52.713Z,17.00
2022-08-05T23:28:06.961Z,15.30
2022-08-05T23:30:40.350Z,17.38
2022-08-05T23:33:15.990Z,19.75
2022-08-05T23:35:50.813Z,19.10
2022-08-05T23:38:18.187Z,10.95
2022-08-05T23:40:49.772Z,14.52
2022-08-05T23:43:25.369Z,11.90
2022-08-05T23:46:20.146Z,9.85
2022-08-05T23:48:59.794Z,6.60
2022-08-05T23:51:54.888Z,10.85
2022-08-05T23:54:30.214Z,6.13
2022-08-05T23:57:05.152Z,7.30
